Main page
METAR-TAF:

METAR-TAF

Airports :

Oil platform

Heimdal, Norway

latitude: 59-34-12N, longitude: 2-13-48E, elevation: 10 m

Current weather observation

The report was made 31 minutes ago, at 20:50 UTC
Wind 17 kt from the Southwest
Temperature 12°C
Humidity 82%
Pressure 998 hPa
Visibility 10 km or more

METAR: ENHM 202050Z AUTO 22017KT 9999NDV BKN190/// 12/09 Q0998 W12/S5

Time: 23:21 (21:21 UTC)

Forecast

The report was made 10 hours and 21 minutes ago, at 11:00 UTC
Forecast valid from 20 at 12 UTC to 20 at 17 UTC
Wind 40 kt from the Southwest
Visibility 10 km or more
Few clouds at a height of 2000 ft
Scattered clouds at a height of 3500 ft
Temporary
from 20 at 12 UTC to 20 at 17 UTC
Wind 55 kt from the Southwest

TAF: ENHM 201100Z 2012/2017 23040KT 9999 FEW020 SCT035 TEMPO 2012/2017 23055KT

Weather observations and forecasts of more than 4000 airports (METAR and TAF reports).

The available stations are represented by yellow and red dots on the map.

Hover mouse over dot to see the name of the station.

Then click to see weather observations and forecasts.

To change the map : click on the green buttons with a black cross to zoom in, on the green button with a dash to zoom out, or on the green arrows for adjacent maps.


METAR-TAF: